DRBK1: Arkansas River, Derby, KS

Data processed at Sun May 26 2019 23:50


All information presented herein is the property of the government of the United States of America and may be revised or deleted at any time without prior notice.
Dissemination of this information without the expressed written consent of the Public Affairs Office, Tulsa District U.S. Army Corps of Engineers is strictly prohibited.
These data are gathered electronically and, as presented, have not undergone any form of quality control. These data are not guaranteed to be valid or correct.
Go to home page.
Go to station list.
Go to home page.

Upstream stations:

Downstream station:
Previous Day
Next Day
Current Day
    
SHEF ID:       DRBK1     ARKANSAS R AT DERBY, KS
STATION TYPE:  
Regulating: Stage =    12.00, Flow =    24335

               PRECIP     STAGE  RIV-FLOW  BAT-LOAD
                   in        ft       cfs      volt
              Ccp-Rev   Ccp-Rev   Ccp-Rev   Ccp-Rev
(US/Central)
05/26 00:00      ----     13.62     32529     12.57
05/26 01:00      ----     13.78     33201     12.49
05/26 02:00      ----     13.76     33117     12.49
05/26 03:00      ----     13.61     32487     12.49
05/26 04:00      ----     13.43     30174     12.49
05/26 05:00      ----     13.27     29493     12.49
05/26 06:00      ----     13.14     28944     12.49
05/26 07:00      ----     13.09     28735     12.49
05/26 08:00      ----     13.03     28484     12.41
05/26 09:00      ----     13.07     28651     12.41
05/26 10:00      ----     13.20     29197     12.49
05/26 11:00      ----     13.31     29662     12.49
05/26 12:00      ----     13.35     29833     12.57
05/26 13:00      ----     13.39     30003     12.97
05/26 14:00      ----     13.32     29705     12.89
05/26 15:00      ----     13.37     29918     13.05
05/26 16:00      ----     13.37     29918     12.97
05/26 17:00      ----     13.42     30131     12.97
05/26 18:00      ----     13.47     30345     12.89
05/26 19:00      ----     13.52     30560     12.81
05/26 20:00      ----     13.56     30733     12.81
05/26 21:00      ----     13.56     30733     12.73
05/26 22:00      ----     13.60     30906     12.73
05/26 23:00      ----     13.66     31166     12.65